Time;durP1;ratioP1;P1;durP2;ratioP2;P2;SDS_P1;SDS_P2;PMS_P1;PMS_P2;Temp;Humidity;BMP_temperature;BMP_pressure;BME280_temperature;BME280_humidity;BME280_pressure;Samples;Min_cycle;Max_cycle;Signal;HPM_P1;HPM_P2
2022/05/30 00:00:55;;;;;;;5.13;2.10;;;10.20;67.80;;;;;;4876867;29;20491;-74
2022/05/30 00:03:23;;;;;;;4.53;2.17;;;10.20;68.10;;;;;;4868068;29;20487;-73
2022/05/30 00:05:52;;;;;;;4.67;1.97;;;10.30;68.10;;;;;;4868663;29;20500;-74
2022/05/30 00:08:20;;;;;;;4.03;2.40;;;10.40;68.10;;;;;;4881847;29;20460;-74
2022/05/30 00:10:48;;;;;;;6.33;2.67;;;10.40;68.10;;;;;;4883696;29;20992;-73
2022/05/30 00:13:17;;;;;;;4.50;2.20;;;10.50;68.10;;;;;;4867895;29;20473;-74
2022/05/30 00:15:45;;;;;;;6.93;2.57;;;10.50;68.10;;;;;;4876480;29;20517;-74
2022/05/30 00:18:13;;;;;;;4.90;2.40;;;10.50;68.00;;;;;;4870665;29;20471;-74
2022/05/30 00:20:45;;;;;;;5.33;2.17;;;10.50;67.80;;;;;;4870091;29;20472;-74
2022/05/30 00:23:13;;;;;;;5.40;2.03;;;10.50;67.70;;;;;;4886371;29;20501;-74
2022/05/30 00:25:42;;;;;;;5.40;2.63;;;10.40;67.60;;;;;;4882066;29;20468;-74
2022/05/30 00:28:10;;;;;;;8.27;2.60;;;10.40;67.70;;;;;;4884787;29;20462;-71
2022/05/30 00:30:41;;;;;;;4.27;2.13;;;10.40;67.70;;;;;;4884389;29;20478;-74
2022/05/30 00:33:08;;;;;;;4.77;2.40;;;10.40;67.70;;;;;;4874971;29;20467;-72
2022/05/30 00:35:37;;;;;;;5.27;2.60;;;10.30;67.70;;;;;;4854880;29;20455;-72
2022/05/30 00:38:05;;;;;;;5.00;2.23;;;10.30;67.60;;;;;;4875802;29;20462;-71
2022/05/30 00:40:34;;;;;;;4.50;1.80;;;10.20;67.70;;;;;;4881472;29;20517;-72
2022/05/30 00:43:17;;;;;;;6.03;2.40;;;10.20;67.60;;;;;;4868567;29;20989;-74
2022/05/30 00:45:47;;;;;;;5.07;2.43;;;10.20;67.60;;;;;;4852998;29;20491;-74
2022/05/30 00:48:16;;;;;;;4.73;2.40;;;10.10;67.70;;;;;;4864969;29;20527;-73
2022/05/30 00:50:45;;;;;;;8.50;2.47;;;10.10;67.70;;;;;;4862037;29;20480;-73
2022/05/30 00:53:13;;;;;;;4.80;2.30;;;10.10;67.90;;;;;;4880008;29;20466;-73
2022/05/30 00:55:43;;;;;;;5.00;2.10;;;10.10;68.00;;;;;;4873597;29;20474;-73
2022/05/30 00:58:14;;;;;;;5.27;2.07;;;10.10;68.00;;;;;;4880501;29;20463;-73
2022/05/30 01:00:42;;;;;;;4.30;2.10;;;10.10;67.90;;;;;;4857859;29;20482;-73
2022/05/30 01:08:44;;;;;;;5.37;2.37;;;10.00;67.70;;;;;;4860507;29;20854;-73
2022/05/30 01:11:12;;;;;;;4.40;2.30;;;10.00;67.80;;;;;;4863930;29;20852;-73
2022/05/30 01:13:40;;;;;;;4.50;1.87;;;10.00;67.70;;;;;;4877065;29;20531;-73
2022/05/30 01:16:08;;;;;;;4.07;1.97;;;10.00;67.70;;;;;;4878081;29;21033;-73
2022/05/30 01:18:43;;;;;;;6.03;2.70;;;9.90;67.70;;;;;;4872385;29;20467;-73
2022/05/30 01:21:46;;;;;;;4.77;2.00;;;9.90;67.70;;;;;;4868182;29;20470;-73
2022/05/30 01:24:32;;;;;;;6.17;2.47;;;9.80;67.70;;;;;;4858919;29;20498;-74
2022/05/30 01:27:46;;;;;;;7.40;2.43;;;9.80;67.80;;;;;;4869014;29;21016;-74
2022/05/30 01:30:17;;;;;;;5.13;2.20;;;9.70;68.00;;;;;;4850306;29;20481;-73
2022/05/30 01:32:45;;;;;;;4.77;2.50;;;9.80;68.10;;;;;;4869007;29;20459;-73
2022/05/30 01:35:23;;;;;;;5.03;2.00;;;9.80;68.10;;;;;;4867608;29;20487;-72
2022/05/30 01:37:51;;;;;;;5.43;2.03;;;9.80;68.00;;;;;;4863381;29;20465;-73
2022/05/30 01:40:20;;;;;;;4.27;1.90;;;9.80;68.00;;;;;;4865398;29;20548;-73
2022/05/30 01:42:48;;;;;;;4.67;2.10;;;9.80;68.00;;;;;;4868677;29;20478;-73
2022/05/30 01:45:18;;;;;;;4.83;2.40;;;9.80;68.00;;;;;;4879082;29;20490;-72
2022/05/30 01:47:46;;;;;;;4.60;2.10;;;9.80;67.80;;;;;;4868718;29;20513;-74
2022/05/30 01:50:14;;;;;;;4.20;1.90;;;9.70;67.80;;;;;;4873065;29;20956;-72
2022/05/30 01:52:42;;;;;;;5.07;2.23;;;9.70;67.80;;;;;;4865959;29;20562;-72
2022/05/30 01:55:12;;;;;;;5.80;2.40;;;9.60;67.80;;;;;;4867266;29;20477;-72
2022/05/30 01:57:55;;;;;;;8.00;2.03;;;9.60;67.60;;;;;;4858592;29;20845;-73
2022/05/30 02:00:37;;;;;;;4.77;2.43;;;9.40;67.60;;;;;;4875830;29;20475;-72
2022/05/30 02:03:06;;;;;;;4.60;2.30;;;9.40;67.80;;;;;;4875748;29;20470;-73
2022/05/30 02:05:34;;;;;;;5.73;2.50;;;9.30;67.80;;;;;;4866740;29;21029;-71
2022/05/30 02:08:03;;;;;;;5.00;2.33;;;9.30;67.90;;;;;;4872471;29;20490;-73
2022/05/30 02:10:32;;;;;;;5.97;2.43;;;9.30;68.00;;;;;;4871504;29;20466;-73
2022/05/30 02:13:05;;;;;;;4.20;1.97;;;9.30;68.10;;;;;;4854570;29;20478;-72
2022/05/30 02:18:52;;;;;;;4.53;2.20;;;9.30;68.00;;;;;;4875095;29;20543;-72
2022/05/30 02:21:20;;;;;;;5.13;2.00;;;9.30;68.00;;;;;;4863845;29;20980;-72
2022/05/30 02:23:48;;;;;;;4.40;2.10;;;9.30;68.00;;;;;;4861729;29;20482;-72
2022/05/30 02:26:16;;;;;;;4.10;1.90;;;9.30;68.00;;;;;;4864955;29;20550;-73
2022/05/30 02:28:45;;;;;;;4.90;2.10;;;9.30;67.90;;;;;;4858403;29;20487;-73
2022/05/30 02:31:14;;;;;;;5.53;2.20;;;9.30;67.90;;;;;;4860736;29;20566;-72
2022/05/30 02:36:40;;;;;;;4.47;1.90;;;9.20;67.90;;;;;;4881177;29;21037;-72
2022/05/30 02:39:13;;;;;;;6.30;2.07;;;9.20;68.00;;;;;;4869663;29;20470;-73
2022/05/30 02:41:47;;;;;;;4.57;2.20;;;9.20;68.10;;;;;;4883845;29;20477;-73
2022/05/30 02:44:19;;;;;;;4.63;2.00;;;9.20;68.10;;;;;;4873985;29;20714;-73
2022/05/30 02:46:50;;;;;;;4.60;2.40;;;9.20;68.00;;;;;;4862157;29;20573;-73
2022/05/30 02:49:19;;;;;;;4.03;1.97;;;9.20;68.00;;;;;;4865318;29;20551;-72
2022/05/30 02:51:48;;;;;;;4.60;2.10;;;9.20;67.90;;;;;;4863875;29;20506;-73
2022/05/30 02:54:17;;;;;;;4.70;2.10;;;9.20;68.00;;;;;;4867590;29;20483;-73
2022/05/30 02:56:49;;;;;;;6.27;3.30;;;9.20;67.90;;;;;;4884285;29;20472;-72
2022/05/30 02:59:18;;;;;;;5.60;2.37;;;9.20;68.00;;;;;;4875386;29;21078;-72
2022/05/30 03:01:54;;;;;;;4.90;2.03;;;9.10;68.10;;;;;;4849750;29;20585;-72
2022/05/30 03:04:23;;;;;;;5.40;2.10;;;9.20;68.10;;;;;;4860249;29;20490;-72
2022/05/30 03:06:51;;;;;;;5.03;2.00;;;9.20;68.10;;;;;;4872844;29;20501;-72
2022/05/30 03:09:20;;;;;;;5.77;2.20;;;9.20;68.00;;;;;;4888287;29;20498;-72
2022/05/30 03:12:08;;;;;;;4.30;2.20;;;9.10;68.00;;;;;;4883540;29;20494;-73
2022/05/30 03:14:36;;;;;;;4.40;2.10;;;9.10;68.10;;;;;;4867816;29;20486;-73
2022/05/30 03:17:06;;;;;;;4.20;2.10;;;9.10;68.10;;;;;;4869096;29;20492;-73
2022/05/30 03:19:36;;;;;;;5.40;2.10;;;9.10;68.20;;;;;;4853860;29;20530;-73
2022/05/30 03:22:04;;;;;;;4.80;2.10;;;9.10;68.10;;;;;;4845367;29;20478;-73
2022/05/30 03:24:43;;;;;;;4.03;2.13;;;9.10;68.00;;;;;;4860054;29;20493;-73
2022/05/30 03:27:15;;;;;;;13.00;2.40;;;9.10;68.00;;;;;;4865786;29;20860;-73
2022/05/30 03:29:43;;;;;;;4.40;2.70;;;9.00;68.00;;;;;;4859778;29;20498;-73
2022/05/30 03:32:12;;;;;;;5.80;3.03;;;9.10;68.10;;;;;;4858635;29;20530;-73
2022/05/30 03:34:41;;;;;;;5.50;2.30;;;9.10;68.20;;;;;;4867980;29;20822;-72
2022/05/30 03:37:09;;;;;;;4.43;2.20;;;9.10;68.10;;;;;;4866490;29;20562;-73
2022/05/30 03:39:50;;;;;;;5.47;2.40;;;9.10;68.00;;;;;;4856483;29;20483;-73
2022/05/30 03:42:36;;;;;;;6.90;2.57;;;9.00;68.10;;;;;;4871795;29;20551;-72
2022/05/30 03:45:13;;;;;;;4.83;2.40;;;9.10;68.20;;;;;;4864780;29;20498;-73
2022/05/30 03:47:45;;;;;;;6.80;2.57;;;9.10;68.30;;;;;;4889345;29;20551;-72
2022/05/30 03:50:18;;;;;;;5.33;2.87;;;9.10;68.30;;;;;;4868654;29;20834;-72
2022/05/30 03:52:46;;;;;;;6.67;3.23;;;9.10;68.40;;;;;;4874349;29;20882;-73
2022/05/30 03:55:20;;;;;;;6.67;2.23;;;9.10;68.40;;;;;;4864680;29;20856;-72
2022/05/30 03:57:48;;;;;;;6.27;2.80;;;9.20;68.60;;;;;;4858289;29;20482;-73
2022/05/30 04:00:19;;;;;;;6.03;2.80;;;9.20;68.70;;;;;;4866013;29;20461;-72
2022/05/30 04:02:53;;;;;;;5.53;2.90;;;9.20;68.80;;;;;;4868355;29;20556;-73
2022/05/30 04:05:22;;;;;;;4.20;2.50;;;9.30;68.90;;;;;;4865989;29;20547;-72
2022/05/30 04:07:51;;;;;;;4.00;2.13;;;9.40;68.90;;;;;;4860873;29;20904;-72
2022/05/30 04:10:42;;;;;;;5.43;3.03;;;9.40;68.90;;;;;;4867348;29;20482;-72
2022/05/30 04:13:26;;;;;;;5.43;2.60;;;9.50;69.00;;;;;;4855787;29;20491;-72
2022/05/30 04:16:14;;;;;;;4.70;2.70;;;9.60;69.00;;;;;;4875811;29;20470;-72
2022/05/30 04:18:44;;;;;;;6.47;2.63;;;9.60;69.20;;;;;;4890015;29;20526;-73
2022/05/30 04:21:13;;;;;;;6.97;2.87;;;9.70;69.20;;;;;;4872732;29;20466;-72
2022/05/30 04:23:42;;;;;;;10.70;2.97;;;9.80;69.40;;;;;;4885528;29;20483;-72
2022/05/30 04:26:17;;;;;;;5.50;3.07;;;9.90;69.50;;;;;;4866262;29;20885;-72
2022/05/30 04:28:50;;;;;;;7.70;3.07;;;10.00;69.60;;;;;;4854478;29;20505;-74
2022/05/30 04:31:51;;;;;;;5.03;2.67;;;10.20;69.50;;;;;;4865468;29;20478;-74
2022/05/30 04:34:20;;;;;;;4.90;2.60;;;10.30;69.40;;;;;;4865343;29;20497;-74
2022/05/30 04:36:48;;;;;;;5.53;3.30;;;10.40;69.30;;;;;;4860967;29;20462;-73
2022/05/30 04:39:16;;;;;;;5.53;2.50;;;10.40;69.20;;;;;;4860368;29;20971;-71
2022/05/30 04:41:56;;;;;;;6.70;2.60;;;10.40;69.20;;;;;;4865673;29;20503;-72
2022/05/30 04:44:43;;;;;;;4.60;2.40;;;10.40;69.30;;;;;;4871430;29;20533;-69
2022/05/30 04:47:20;;;;;;;4.43;2.47;;;10.50;69.60;;;;;;4878250;29;20478;-72
2022/05/30 04:49:51;;;;;;;8.60;3.10;;;10.60;69.70;;;;;;4869458;29;21008;-71
2022/05/30 04:52:21;;;;;;;4.93;2.53;;;10.70;69.60;;;;;;4862244;29;20467;-71
2022/05/30 04:54:50;;;;;;;4.87;2.20;;;10.80;69.60;;;;;;4870041;29;20928;-71
2022/05/30 04:57:43;;;;;;;6.90;3.20;;;10.90;69.80;;;;;;4855466;29;20501;-72
2022/05/30 05:00:33;;;;;;;5.47;2.97;;;11.00;70.10;;;;;;4850368;29;20843;-71
2022/05/30 05:03:02;;;;;;;7.40;3.37;;;11.20;70.20;;;;;;4861028;29;20474;-73
2022/05/30 05:05:31;;;;;;;6.90;3.17;;;11.50;70.40;;;;;;4873632;29;20483;-73
2022/05/30 05:08:06;;;;;;;6.27;3.40;;;11.70;70.50;;;;;;4864656;29;20466;-72
2022/05/30 05:10:58;;;;;;;5.13;2.97;;;11.90;70.40;;;;;;4871865;29;20486;-73
2022/05/30 05:13:45;;;;;;;6.90;3.03;;;12.20;70.40;;;;;;4872954;29;20485;-72
2022/05/30 05:16:33;;;;;;;5.87;3.47;;;12.40;70.50;;;;;;4872956;29;20475;-72
2022/05/30 05:19:01;;;;;;;5.90;3.40;;;12.60;70.20;;;;;;4853805;29;20549;-73
2022/05/30 05:21:34;;;;;;;5.93;3.37;;;12.70;70.20;;;;;;4855210;29;20475;-73
2022/05/30 05:24:04;;;;;;;5.87;3.23;;;12.90;70.50;;;;;;4854083;29;20511;-72
2022/05/30 05:26:49;;;;;;;5.20;2.87;;;13.10;71.10;;;;;;4869123;29;20557;-72
2022/05/30 05:29:21;;;;;;;6.60;3.30;;;13.50;72.30;;;;;;4877426;29;20481;-73
2022/05/30 05:31:49;;;;;;;5.33;2.80;;;14.00;72.90;;;;;;4857131;29;20490;-74
2022/05/30 05:34:18;;;;;;;5.77;3.10;;;14.90;71.50;;;;;;4868041;29;20522;-72
2022/05/30 05:36:48;;;;;;;5.70;2.90;;;16.00;69.60;;;;;;4873239;29;20466;-73
2022/05/30 05:39:18;;;;;;;7.13;2.77;;;16.90;67.10;;;;;;4854938;29;20484;-73
2022/05/30 05:41:52;;;;;;;5.70;2.93;;;17.30;65.30;;;;;;4859245;29;20465;-73
2022/05/30 05:44:21;;;;;;;5.43;2.20;;;17.40;64.90;;;;;;4862402;29;20519;-73
2022/05/30 05:46:49;;;;;;;5.10;2.60;;;17.80;64.90;;;;;;4871375;29;20478;-72
2022/05/30 05:49:19;;;;;;;8.30;2.90;;;18.30;64.30;;;;;;4867672;29;20511;-72
2022/05/30 05:51:53;;;;;;;5.47;3.03;;;18.60;63.40;;;;;;4872170;29;20463;-73
2022/05/30 05:54:23;;;;;;;6.30;2.40;;;18.80;62.80;;;;;;4859029;29;20490;-71
2022/05/30 05:56:53;;;;;;;5.40;2.63;;;19.40;63.20;;;;;;4860172;29;20471;-74
2022/05/30 05:59:27;;;;;;;6.23;2.70;;;20.30;62.50;;;;;;4864908;29;20467;-71
2022/05/30 06:01:56;;;;;;;4.90;2.00;;;21.30;61.10;;;;;;4859745;29;20486;-73
2022/05/30 06:04:26;;;;;;;6.30;2.43;;;22.00;59.60;;;;;;4865692;29;20486;-72
2022/05/30 06:07:14;;;;;;;9.03;2.70;;;22.60;58.10;;;;;;4885230;29;20534;-73
2022/05/30 06:10:11;;;;;;;5.37;2.37;;;23.00;56.70;;;;;;4878907;29;20558;-74
2022/05/30 06:12:50;;;;;;;4.73;2.13;;;22.80;55.90;;;;;;4870192;29;20477;-72
2022/05/30 06:15:20;;;;;;;8.50;2.43;;;22.30;56.00;;;;;;4866862;29;20499;-76
2022/05/30 06:18:11;;;;;;;6.03;2.40;;;21.70;56.00;;;;;;4870381;29;20500;-72
2022/05/30 06:20:41;;;;;;;12.03;2.60;;;21.10;56.40;;;;;;4860665;29;20458;-73
2022/05/30 06:23:11;;;;;;;8.80;2.83;;;20.50;56.60;;;;;;4878839;29;20558;-74
2022/05/30 06:26:15;;;;;;;5.87;2.30;;;19.90;56.90;;;;;;4881336;29;20547;-75
2022/05/30 06:29:03;;;;;;;9.77;2.30;;;19.10;57.10;;;;;;4885308;29;20468;-72
2022/05/30 06:31:32;;;;;;;8.50;2.93;;;18.40;57.60;;;;;;4867902;29;21325;-74
2022/05/30 06:34:02;;;;;;;10.87;3.03;;;17.70;58.10;;;;;;4879078;29;20482;-73
2022/05/30 06:36:44;;;;;;;10.60;2.80;;;17.10;58.50;;;;;;4858394;29;20489;-72
2022/05/30 06:39:17;;;;;;;11.10;3.07;;;16.50;59.30;;;;;;4861696;29;20467;-72
2022/05/30 06:41:53;;;;;;;8.20;2.67;;;16.00;59.90;;;;;;4872011;29;20569;-73
2022/05/30 06:44:21;;;;;;;9.10;2.57;;;15.60;60.50;;;;;;4867131;29;20483;-73
2022/05/30 06:46:49;;;;;;;10.37;2.80;;;15.30;61.10;;;;;;4887528;29;20485;-74
2022/05/30 06:49:37;;;;;;;10.50;2.47;;;15.10;61.60;;;;;;4884804;29;20475;-72
2022/05/30 06:52:08;;;;;;;7.93;2.43;;;14.90;62.00;;;;;;4858917;29;20523;-73
2022/05/30 06:54:37;;;;;;;6.97;2.37;;;14.70;62.40;;;;;;4862561;29;20522;-72
2022/05/30 06:59:53;;;;;;;7.70;2.30;;;14.40;63.40;;;;;;4874363;29;20462;-71
2022/05/30 07:02:21;;;;;;;8.93;2.17;;;14.30;63.70;;;;;;4865338;29;20494;-72
2022/05/30 07:05:08;;;;;;;7.53;2.90;;;14.20;63.90;;;;;;4883863;29;20888;-72
2022/05/30 07:07:57;;;;;;;11.37;2.70;;;14.10;64.30;;;;;;4876494;29;20514;-72
2022/05/30 07:10:37;;;;;;;7.13;2.87;;;14.10;64.90;;;;;;4884844;29;20490;-74
2022/05/30 07:13:13;;;;;;;6.50;2.47;;;14.10;64.90;;;;;;4871893;29;20505;-73
2022/05/30 07:15:42;;;;;;;9.63;2.43;;;14.00;65.10;;;;;;4870680;29;20547;-72
2022/05/30 07:18:17;;;;;;;13.63;3.07;;;14.10;65.40;;;;;;4865111;29;20483;-73
2022/05/30 07:20:48;;;;;;;6.50;2.37;;;14.10;65.60;;;;;;4853240;29;20477;-74
2022/05/30 07:23:29;;;;;;;9.20;2.40;;;14.10;65.70;;;;;;4868304;29;20592;-74
2022/05/30 07:26:19;;;;;;;9.23;2.83;;;14.10;65.80;;;;;;4878444;29;20538;-73
2022/05/30 07:29:15;;;;;;;13.50;2.67;;;14.10;66.20;;;;;;4852756;29;20942;-72
2022/05/30 07:32:04;;;;;;;7.07;2.10;;;14.10;66.30;;;;;;4879324;29;20505;-73
2022/05/30 07:34:51;;;;;;;8.53;2.33;;;14.10;66.30;;;;;;4876229;29;20479;-73
2022/05/30 07:37:45;;;;;;;6.23;2.10;;;14.10;66.30;;;;;;4875486;29;20866;-72
2022/05/30 07:40:24;;;;;;;7.30;2.23;;;14.00;66.40;;;;;;4860382;29;20820;-72
2022/05/30 07:43:24;;;;;;;6.90;2.37;;;14.10;66.50;;;;;;4866188;29;20540;-72
2022/05/30 07:46:22;;;;;;;6.30;2.50;;;14.20;66.70;;;;;;4877678;29;20482;-74
2022/05/30 07:49:04;;;;;;;9.57;2.27;;;14.20;66.80;;;;;;4879283;29;20494;-74
2022/05/30 07:51:32;;;;;;;9.03;2.70;;;14.30;66.90;;;;;;4875692;29;20725;-73
2022/05/30 07:54:17;;;;;;;9.73;2.43;;;14.40;67.00;;;;;;4868547;29;20490;-73
2022/05/30 07:57:07;;;;;;;9.57;2.00;;;14.40;66.90;;;;;;4875017;29;20467;-73
2022/05/30 07:59:37;;;;;;;7.00;1.73;;;14.50;66.80;;;;;;4866403;29;21004;-73
2022/05/30 08:02:07;;;;;;;6.17;2.00;;;14.50;66.90;;;;;;4865091;29;20475;-74
2022/05/30 08:04:37;;;;;;;6.47;1.83;;;14.60;66.90;;;;;;4862023;29;20547;-74
2022/05/30 08:07:23;;;;;;;4.70;1.77;;;14.60;66.70;;;;;;4881658;29;20586;-73
2022/05/30 08:10:06;;;;;;;4.43;1.40;;;14.70;66.60;;;;;;4859510;29;20505;-73
2022/05/30 08:12:35;;;;;;;4.10;1.50;;;14.70;66.50;;;;;;4871316;29;20549;-73
2022/05/30 08:15:23;;;;;;;7.00;1.67;;;14.70;66.50;;;;;;4885791;29;20499;-72
2022/05/30 08:18:26;;;;;;;3.90;1.17;;;14.70;66.50;;;;;;4867263;29;20526;-73
2022/05/30 08:20:58;;;;;;;4.70;1.63;;;14.80;66.50;;;;;;4875052;29;20452;-73
2022/05/30 08:23:28;;;;;;;6.10;1.43;;;14.80;66.40;;;;;;4864711;29;20462;-74
2022/05/30 08:26:00;;;;;;;4.90;2.00;;;14.90;66.40;;;;;;4857341;29;20476;-74
2022/05/30 08:28:33;;;;;;;4.70;1.90;;;14.90;66.40;;;;;;4855763;29;20474;-73
2022/05/30 08:31:03;;;;;;;5.80;1.30;;;14.90;66.30;;;;;;4858756;29;20553;-74
2022/05/30 08:33:54;;;;;;;5.03;1.53;;;15.00;66.20;;;;;;4883360;29;20489;-73
2022/05/30 08:36:34;;;;;;;4.70;1.30;;;15.00;66.00;;;;;;4851055;29;20481;-74
2022/05/30 08:41:48;;;;;;;5.17;1.27;;;15.00;66.00;;;;;;4870450;29;20456;-72
2022/05/30 08:44:30;;;;;;;4.73;1.70;;;15.00;65.90;;;;;;4867862;29;20571;-73
2022/05/30 08:47:23;;;;;;;5.77;1.57;;;15.00;65.90;;;;;;4859528;29;21007;-73
2022/05/30 08:49:57;;;;;;;5.57;2.30;;;15.00;66.00;;;;;;4856481;29;21908;-73
2022/05/30 08:52:38;;;;;;;5.20;1.30;;;15.00;66.00;;;;;;4867220;29;20478;-71
2022/05/30 08:55:18;;;;;;;9.70;1.80;;;15.00;66.00;;;;;;4860319;29;20489;-71
2022/05/30 08:58:00;;;;;;;5.23;1.77;;;15.00;65.50;;;;;;4865781;29;20470;-71
2022/05/30 09:00:34;;;;;;;5.03;1.47;;;15.00;65.50;;;;;;4860387;29;20977;-75
2022/05/30 09:03:26;;;;;;;4.13;1.23;;;15.10;65.50;;;;;;4879625;29;20474;-75
2022/05/30 09:05:59;;;;;;;4.10;1.50;;;15.20;65.40;;;;;;4861358;29;20470;-76
2022/05/30 09:08:33;;;;;;;4.60;1.27;;;15.20;65.30;;;;;;4874218;29;20519;-75
2022/05/30 09:11:35;;;;;;;4.97;1.40;;;15.20;65.00;;;;;;4846618;29;20488;-74
2022/05/30 09:14:13;;;;;;;4.80;1.20;;;15.20;64.60;;;;;;4854899;29;20525;-74
2022/05/30 09:16:49;;;;;;;4.43;1.23;;;15.30;64.70;;;;;;4862411;29;20481;-74
2022/05/30 09:19:25;;;;;;;8.43;1.80;;;15.30;64.60;;;;;;4872059;29;20489;-74
2022/05/30 09:22:01;;;;;;;7.43;1.50;;;15.40;64.40;;;;;;4887532;29;20546;-73
2022/05/30 09:24:35;;;;;;;3.93;1.17;;;15.40;64.30;;;;;;4869404;29;20540;-74
2022/05/30 09:27:05;;;;;;;4.57;1.33;;;15.50;64.20;;;;;;4861640;29;20467;-74
2022/05/30 09:29:41;;;;;;;5.73;1.47;;;15.60;64.00;;;;;;4856973;29;20468;-73
2022/05/30 09:32:37;;;;;;;4.63;1.40;;;15.60;63.70;;;;;;4885097;29;20506;-74
2022/05/30 09:35:36;;;;;;;8.60;1.47;;;15.60;63.60;;;;;;4843493;29;20580;-74
2022/05/30 09:38:41;;;;;;;8.53;1.70;;;15.60;63.40;;;;;;4851154;29;20563;-73
2022/05/30 09:41:27;;;;;;;3.80;1.13;;;15.70;63.30;;;;;;4858729;29;20891;-73
2022/05/30 09:44:05;;;;;;;5.00;1.30;;;15.70;63.10;;;;;;4885717;29;21228;-73
2022/05/30 09:46:38;;;;;;;4.67;1.40;;;15.70;63.10;;;;;;4875519;29;20477;-73
2022/05/30 09:49:27;;;;;;;3.97;1.37;;;15.70;63.00;;;;;;4861813;29;20543;-73
2022/05/30 09:52:23;;;;;;;4.47;1.37;;;15.70;63.00;;;;;;4854193;29;20846;-73
2022/05/30 09:54:51;;;;;;;7.77;1.57;;;15.70;63.00;;;;;;4879985;29;20593;-74
2022/05/30 09:57:23;;;;;;;3.93;1.23;;;15.70;63.10;;;;;;4876262;29;20455;-73
2022/05/30 10:00:14;;;;;;;5.97;1.37;;;15.70;63.00;;;;;;4871422;29;20529;-73
2022/05/30 10:02:45;;;;;;;4.50;1.10;;;15.70;63.10;;;;;;4875933;29;20470;-74
2022/05/30 10:05:26;;;;;;;3.40;1.00;;;15.70;63.10;;;;;;4859671;29;20526;-72
2022/05/30 10:07:58;;;;;;;5.23;1.33;;;15.80;63.10;;;;;;4870668;29;20546;-73
2022/05/30 10:10:41;;;;;;;3.70;1.20;;;15.90;63.00;;;;;;4861925;29;20471;-74
2022/05/30 10:13:12;;;;;;;9.60;1.30;;;16.00;63.00;;;;;;4866319;29;20555;-74
2022/05/30 10:16:00;;;;;;;12.20;1.83;;;16.20;63.00;;;;;;4878173;29;20837;-73
2022/05/30 10:18:33;;;;;;;5.07;1.30;;;16.30;62.60;;;;;;4866012;29;20495;-73
2022/05/30 10:21:20;;;;;;;4.90;1.20;;;16.40;62.40;;;;;;4866169;29;20545;-73
2022/05/30 10:31:07;;;;;;;4.57;1.50;;;16.50;61.60;;;;;;4843950;29;20536;-74
2022/05/30 10:34:35;;;;;;;3.50;1.27;;;16.40;61.50;;;;;;4865091;29;20584;-74
2022/05/30 10:37:21;;;;;;;5.50;1.13;;;16.40;61.30;;;;;;4853053;29;20519;-74
2022/05/30 10:40:12;;;;;;;5.67;1.23;;;16.30;61.00;;;;;;4858203;29;20466;-74
2022/05/30 10:42:48;;;;;;;5.50;1.10;;;16.30;60.90;;;;;;4871059;29;20459;-74
2022/05/30 10:45:19;;;;;;;4.17;1.00;;;16.20;61.00;;;;;;4884989;29;22336;-74
2022/05/30 10:47:52;;;;;;;4.97;1.10;;;16.20;61.00;;;;;;4860052;29;20466;-74
2022/05/30 10:50:42;;;;;;;4.30;1.13;;;16.20;60.90;;;;;;4870089;29;20462;-74
2022/05/30 10:53:25;;;;;;;3.97;0.93;;;16.20;61.00;;;;;;4856647;29;20860;-74
2022/05/30 10:56:18;;;;;;;4.60;1.17;;;16.10;61.00;;;;;;4877160;29;20462;-74
2022/05/30 10:58:58;;;;;;;4.00;1.13;;;16.10;61.00;;;;;;4862923;29;20487;-74
2022/05/30 11:01:40;;;;;;;3.60;1.30;;;16.00;61.10;;;;;;4861836;29;20672;-72
2022/05/30 11:04:27;;;;;;;3.70;1.00;;;16.00;61.20;;;;;;4861877;29;20580;-74
2022/05/30 11:07:00;;;;;;;3.30;1.03;;;16.00;61.20;;;;;;4873751;29;20489;-72
2022/05/30 11:09:35;;;;;;;3.40;0.93;;;16.10;61.20;;;;;;4861355;29;20988;-71
2022/05/30 11:12:10;;;;;;;4.40;0.90;;;16.10;61.10;;;;;;4873292;29;20505;-71
2022/05/30 11:14:46;;;;;;;4.17;1.10;;;16.20;61.00;;;;;;4872900;29;20489;-73
2022/05/30 11:17:41;;;;;;;4.07;1.20;;;16.20;61.00;;;;;;4880645;29;20623;-73
2022/05/30 11:20:36;;;;;;;5.00;1.17;;;16.20;61.10;;;;;;4873482;29;20520;-72
2022/05/30 11:23:07;;;;;;;4.43;1.30;;;16.20;61.20;;;;;;4857125;29;20467;-73
2022/05/30 11:25:52;;;;;;;6.73;1.20;;;16.30;61.20;;;;;;4855606;29;20490;-73
2022/05/30 11:28:29;;;;;;;5.27;1.53;;;16.30;61.10;;;;;;4873874;29;20530;-72
2022/05/30 11:31:10;;;;;;;4.90;1.40;;;16.40;61.00;;;;;;4878407;29;20478;-73
2022/05/30 11:33:52;;;;;;;3.70;1.17;;;16.40;60.70;;;;;;4879958;29;21004;-73
2022/05/30 11:36:45;;;;;;;6.10;1.47;;;16.40;60.20;;;;;;4875806;29;20491;-73
2022/05/30 11:39:35;;;;;;;3.50;1.20;;;16.50;60.30;;;;;;4876846;29;20491;-73
2022/05/30 11:42:14;;;;;;;4.10;1.40;;;16.50;60.40;;;;;;4872154;29;20525;-73
2022/05/30 11:44:55;;;;;;;4.73;1.00;;;16.50;60.40;;;;;;4878776;29;20485;-73
2022/05/30 11:47:32;;;;;;;3.70;1.20;;;16.50;60.50;;;;;;4887307;29;20471;-72
2022/05/30 11:50:10;;;;;;;4.07;1.00;;;16.60;60.50;;;;;;4874630;29;20519;-73
2022/05/30 11:52:56;;;;;;;3.83;1.10;;;16.60;60.40;;;;;;4886352;29;20487;-72
2022/05/30 11:55:26;;;;;;;4.17;1.00;;;16.70;60.60;;;;;;4861896;29;20495;-72
2022/05/30 11:57:57;;;;;;;4.73;1.10;;;16.80;60.70;;;;;;4877891;29;20474;-73
2022/05/30 12:00:37;;;;;;;3.40;1.03;;;16.90;60.50;;;;;;4884986;29;20474;-73
2022/05/30 12:03:36;;;;;;;11.37;3.33;;;17.00;60.50;;;;;;4877024;29;20556;-73
2022/05/30 12:06:43;;;;;;;3.90;1.30;;;17.10;60.20;;;;;;4872625;29;20475;-73
2022/05/30 12:09:25;;;;;;;3.80;1.23;;;17.10;60.20;;;;;;4872608;29;20572;-73
2022/05/30 12:12:10;;;;;;;4.17;1.20;;;17.10;60.10;;;;;;4872177;29;20570;-72
2022/05/30 12:15:13;;;;;;;3.40;1.03;;;17.20;60.00;;;;;;4884725;29;20482;-73
2022/05/30 12:24:28;;;;;;;3.30;0.73;;;17.20;59.60;;;;;;4878294;29;20478;-72
2022/05/30 12:27:09;;;;;;;3.60;1.07;;;17.30;59.60;;;;;;4882042;29;20486;-72
2022/05/30 12:29:50;;;;;;;3.10;0.90;;;17.30;59.50;;;;;;4872907;29;20974;-72
2022/05/30 12:32:37;;;;;;;4.20;1.17;;;17.30;59.20;;;;;;4873897;29;20499;-73
2022/05/30 12:35:21;;;;;;;3.50;0.97;;;17.20;59.30;;;;;;4864914;29;20576;-73
2022/05/30 12:37:52;;;;;;;4.80;0.97;;;17.20;59.40;;;;;;4878362;29;20462;-72
2022/05/30 12:40:37;;;;;;;5.70;1.13;;;17.30;59.30;;;;;;4874036;29;20475;-73
2022/05/30 12:43:15;;;;;;;4.30;1.73;;;17.30;58.90;;;;;;4875760;29;20499;-72
2022/05/30 12:45:47;;;;;;;3.73;1.03;;;17.30;58.90;;;;;;4874315;29;20475;-72
2022/05/30 12:48:19;;;;;;;4.93;1.00;;;17.30;59.00;;;;;;4881268;29;20457;-73
2022/05/30 12:51:19;;;;;;;3.20;0.93;;;17.30;59.00;;;;;;4884578;29;20489;-72
2022/05/30 12:54:30;;;;;;;4.13;1.20;;;17.30;59.10;;;;;;4873414;29;20499;-72
2022/05/30 12:57:07;;;;;;;7.13;1.20;;;17.40;59.00;;;;;;4871594;29;20466;-73
2022/05/30 12:59:56;;;;;;;4.30;1.20;;;17.40;58.90;;;;;;4863118;29;20474;-72
2022/05/30 13:02:45;;;;;;;3.37;1.00;;;17.40;58.70;;;;;;4867138;29;20570;-72
2022/05/30 13:05:25;;;;;;;3.03;0.83;;;17.30;58.50;;;;;;4883200;29;20516;-72
2022/05/30 13:07:55;;;;;;;6.10;1.40;;;17.30;58.00;;;;;;4871340;29;20494;-73
2022/05/30 13:10:23;;;;;;;3.20;0.80;;;17.30;58.40;;;;;;4874312;29;20474;-73
2022/05/30 13:13:03;;;;;;;3.73;0.87;;;17.20;58.30;;;;;;4877124;29;20533;-73
2022/05/30 13:15:40;;;;;;;3.83;1.00;;;17.20;58.60;;;;;;4874596;29;20471;-72
2022/05/30 13:18:17;;;;;;;3.90;0.90;;;17.10;58.60;;;;;;4871167;29;20900;-73
2022/05/30 13:20:49;;;;;;;3.80;1.10;;;17.10;58.70;;;;;;4886815;29;20819;-73
2022/05/30 13:23:28;;;;;;;4.00;1.40;;;17.10;58.90;;;;;;4884202;29;20470;-73
2022/05/30 13:25:58;;;;;;;3.10;0.97;;;17.10;59.00;;;;;;4860091;29;20462;-73
2022/05/30 13:28:29;;;;;;;3.57;0.80;;;17.20;58.90;;;;;;4875470;29;21025;-74
2022/05/30 13:31:01;;;;;;;4.37;1.20;;;17.30;59.10;;;;;;4888350;29;20470;-73
2022/05/30 13:33:32;;;;;;;3.70;1.20;;;17.40;58.90;;;;;;4887988;29;21060;-73
2022/05/30 13:36:02;;;;;;;3.70;1.17;;;17.50;58.90;;;;;;4880564;29;20457;-74
2022/05/30 13:38:37;;;;;;;3.43;1.10;;;17.50;58.70;;;;;;4890228;29;20468;-72
2022/05/30 13:41:12;;;;;;;3.47;1.13;;;17.60;58.50;;;;;;4870479;29;20478;-74
2022/05/30 13:43:42;;;;;;;3.87;1.63;;;17.60;58.50;;;;;;4880733;29;20486;-74
2022/05/30 13:46:32;;;;;;;4.67;1.30;;;17.60;58.70;;;;;;4871166;29;20483;-71
2022/05/30 13:49:01;;;;;;;5.73;1.40;;;17.70;58.60;;;;;;4878018;29;20482;-73
2022/05/30 13:51:32;;;;;;;3.60;1.00;;;17.70;58.70;;;;;;4885116;29;20469;-73
2022/05/30 13:54:02;;;;;;;4.60;1.17;;;17.80;58.80;;;;;;4885976;29;20498;-73
2022/05/30 13:56:34;;;;;;;5.13;1.63;;;17.90;58.90;;;;;;4881778;29;20482;-71
2022/05/30 13:59:04;;;;;;;3.80;1.37;;;17.90;58.80;;;;;;4874582;29;20596;-72
2022/05/30 14:01:35;;;;;;;3.60;1.20;;;18.00;59.00;;;;;;4871524;29;20908;-73
2022/05/30 14:04:08;;;;;;;5.87;1.63;;;18.00;58.80;;;;;;4884637;29;20573;-71
2022/05/30 14:06:43;;;;;;;3.67;1.40;;;18.10;58.60;;;;;;4885847;29;20949;-72
2022/05/30 14:09:14;;;;;;;3.67;1.20;;;18.10;58.20;;;;;;4893950;29;20513;-73